sensor_id;sensor_type;location;lat;lon;timestamp;temperature;humidity
4687;DHT22;2357;47.316;-1.348;2023-05-14T00:00:17;14.50;99.90
4687;DHT22;2357;47.316;-1.348;2023-05-14T00:02:43;14.40;99.90
4687;DHT22;2357;47.316;-1.348;2023-05-14T00:05:09;14.50;99.90
4687;DHT22;2357;47.316;-1.348;2023-05-14T00:07:34;14.40;99.90
4687;DHT22;2357;47.316;-1.348;2023-05-14T00:10:00;14.40;99.90
4687;DHT22;2357;47.316;-1.348;2023-05-14T00:12:26;14.50;99.90
4687;DHT22;2357;47.316;-1.348;2023-05-14T00:14:52;14.30;99.90
4687;DHT22;2357;47.316;-1.348;2023-05-14T00:17:18;14.30;99.90
4687;DHT22;2357;47.316;-1.348;2023-05-14T00:19:43;14.20;99.90
4687;DHT22;2357;47.316;-1.348;2023-05-14T00:22:10;14.20;99.90
4687;DHT22;2357;47.316;-1.348;2023-05-14T00:24:35;14.20;99.90
4687;DHT22;2357;47.316;-1.348;2023-05-14T00:27:02;14.20;99.90
4687;DHT22;2357;47.316;-1.348;2023-05-14T00:29:28;14.10;99.90
4687;DHT22;2357;47.316;-1.348;2023-05-14T00:31:53;14.10;99.90
4687;DHT22;2357;47.316;-1.348;2023-05-14T00:34:19;14.10;99.90
4687;DHT22;2357;47.316;-1.348;2023-05-14T00:36:45;14.10;99.90
4687;DHT22;2357;47.316;-1.348;2023-05-14T00:39:11;14.00;99.90
4687;DHT22;2357;47.316;-1.348;2023-05-14T00:41:37;14.00;99.90
4687;DHT22;2357;47.316;-1.348;2023-05-14T00:44:03;13.90;99.90
4687;DHT22;2357;47.316;-1.348;2023-05-14T00:46:29;14.00;99.90
4687;DHT22;2357;47.316;-1.348;2023-05-14T00:48:54;13.90;99.90
4687;DHT22;2357;47.316;-1.348;2023-05-14T00:51:20;13.80;99.90
4687;DHT22;2357;47.316;-1.348;2023-05-14T00:53:46;13.80;99.90
4687;DHT22;2357;47.316;-1.348;2023-05-14T00:56:13;13.80;99.90
4687;DHT22;2357;47.316;-1.348;2023-05-14T00:58:40;13.80;99.90
4687;DHT22;2357;47.316;-1.348;2023-05-14T01:01:05;13.80;99.90
4687;DHT22;2357;47.316;-1.348;2023-05-14T01:03:31;13.80;99.90
4687;DHT22;2357;47.316;-1.348;2023-05-14T01:11:10;13.60;99.90
4687;DHT22;2357;47.316;-1.348;2023-05-14T01:16:03;13.60;99.90
4687;DHT22;2357;47.316;-1.348;2023-05-14T01:18:30;13.60;99.90
4687;DHT22;2357;47.316;-1.348;2023-05-14T01:20:57;13.50;99.90
4687;DHT22;2357;47.316;-1.348;2023-05-14T01:23:22;13.50;99.90
4687;DHT22;2357;47.316;-1.348;2023-05-14T01:25:48;13.50;99.90
4687;DHT22;2357;47.316;-1.348;2023-05-14T01:28:27;13.50;99.90
4687;DHT22;2357;47.316;-1.348;2023-05-14T01:31:07;13.40;99.90
4687;DHT22;2357;47.316;-1.348;2023-05-14T01:33:36;13.40;99.90
4687;DHT22;2357;47.316;-1.348;2023-05-14T01:36:04;13.40;99.90
4687;DHT22;2357;47.316;-1.348;2023-05-14T01:38:30;13.40;99.90
4687;DHT22;2357;47.316;-1.348;2023-05-14T01:40:58;13.30;99.90
4687;DHT22;2357;47.316;-1.348;2023-05-14T01:43:25;13.30;99.90
4687;DHT22;2357;47.316;-1.348;2023-05-14T01:45:51;13.30;99.90
4687;DHT22;2357;47.316;-1.348;2023-05-14T01:48:16;13.20;99.90
4687;DHT22;2357;47.316;-1.348;2023-05-14T01:50:42;13.20;99.90
4687;DHT22;2357;47.316;-1.348;2023-05-14T01:53:08;13.20;99.90
4687;DHT22;2357;47.316;-1.348;2023-05-14T01:55:33;13.20;99.90
4687;DHT22;2357;47.316;-1.348;2023-05-14T01:57:59;13.10;99.90
4687;DHT22;2357;47.316;-1.348;2023-05-14T02:00:25;13.20;99.90
4687;DHT22;2357;47.316;-1.348;2023-05-14T02:02:50;13.20;99.90
4687;DHT22;2357;47.316;-1.348;2023-05-14T02:05:16;13.10;99.90
4687;DHT22;2357;47.316;-1.348;2023-05-14T02:07:42;13.00;99.90
4687;DHT22;2357;47.316;-1.348;2023-05-14T02:10:08;13.00;99.90
4687;DHT22;2357;47.316;-1.348;2023-05-14T02:12:34;13.00;99.90
4687;DHT22;2357;47.316;-1.348;2023-05-14T02:14:59;13.00;99.90
4687;DHT22;2357;47.316;-1.348;2023-05-14T02:17:25;13.00;99.90
4687;DHT22;2357;47.316;-1.348;2023-05-14T02:19:51;12.90;99.90
4687;DHT22;2357;47.316;-1.348;2023-05-14T02:22:17;12.90;99.90
4687;DHT22;2357;47.316;-1.348;2023-05-14T02:24:42;12.90;99.90
4687;DHT22;2357;47.316;-1.348;2023-05-14T02:27:08;12.80;99.90
4687;DHT22;2357;47.316;-1.348;2023-05-14T02:29:33;12.90;99.90
4687;DHT22;2357;47.316;-1.348;2023-05-14T02:31:59;12.90;99.90
4687;DHT22;2357;47.316;-1.348;2023-05-14T02:34:25;12.90;99.90
4687;DHT22;2357;47.316;-1.348;2023-05-14T02:36:50;12.90;99.90
4687;DHT22;2357;47.316;-1.348;2023-05-14T02:39:16;12.90;99.90
4687;DHT22;2357;47.316;-1.348;2023-05-14T02:41:42;12.80;99.90
4687;DHT22;2357;47.316;-1.348;2023-05-14T02:44:07;12.90;99.90
4687;DHT22;2357;47.316;-1.348;2023-05-14T02:46:33;12.90;99.90
4687;DHT22;2357;47.316;-1.348;2023-05-14T02:48:59;12.70;99.90
4687;DHT22;2357;47.316;-1.348;2023-05-14T02:51:25;12.70;99.90
4687;DHT22;2357;47.316;-1.348;2023-05-14T02:53:51;12.80;99.90
4687;DHT22;2357;47.316;-1.348;2023-05-14T02:56:17;12.80;99.90
4687;DHT22;2357;47.316;-1.348;2023-05-14T02:58:42;12.70;99.90
4687;DHT22;2357;47.316;-1.348;2023-05-14T03:01:08;12.70;99.90
4687;DHT22;2357;47.316;-1.348;2023-05-14T03:03:34;12.70;99.90
4687;DHT22;2357;47.316;-1.348;2023-05-14T03:06:00;12.60;99.90
4687;DHT22;2357;47.316;-1.348;2023-05-14T03:08:25;12.60;99.90
4687;DHT22;2357;47.316;-1.348;2023-05-14T03:10:51;12.50;99.90
4687;DHT22;2357;47.316;-1.348;2023-05-14T03:13:17;12.50;99.90
4687;DHT22;2357;47.316;-1.348;2023-05-14T03:15:45;12.50;99.90
4687;DHT22;2357;47.316;-1.348;2023-05-14T03:18:12;12.50;99.90
4687;DHT22;2357;47.316;-1.348;2023-05-14T03:20:37;12.50;99.90
4687;DHT22;2357;47.316;-1.348;2023-05-14T03:23:03;12.40;99.90
4687;DHT22;2357;47.316;-1.348;2023-05-14T03:25:29;12.50;99.90
4687;DHT22;2357;47.316;-1.348;2023-05-14T03:27:54;12.40;99.90
4687;DHT22;2357;47.316;-1.348;2023-05-14T03:30:20;12.40;99.90
4687;DHT22;2357;47.316;-1.348;2023-05-14T03:32:46;12.40;99.90
4687;DHT22;2357;47.316;-1.348;2023-05-14T03:35:11;12.50;99.90
4687;DHT22;2357;47.316;-1.348;2023-05-14T03:37:37;12.60;99.90
4687;DHT22;2357;47.316;-1.348;2023-05-14T03:40:03;12.50;99.90
4687;DHT22;2357;47.316;-1.348;2023-05-14T03:42:29;12.60;99.90
4687;DHT22;2357;47.316;-1.348;2023-05-14T03:44:54;12.60;99.90
4687;DHT22;2357;47.316;-1.348;2023-05-14T03:47:20;12.60;99.90
4687;DHT22;2357;47.316;-1.348;2023-05-14T03:49:45;12.60;99.90
4687;DHT22;2357;47.316;-1.348;2023-05-14T03:52:11;12.60;99.90
4687;DHT22;2357;47.316;-1.348;2023-05-14T03:54:36;12.60;99.90
4687;DHT22;2357;47.316;-1.348;2023-05-14T03:57:03;12.70;99.90
4687;DHT22;2357;47.316;-1.348;2023-05-14T03:59:29;12.70;99.90
4687;DHT22;2357;47.316;-1.348;2023-05-14T04:01:54;12.60;99.90
4687;DHT22;2357;47.316;-1.348;2023-05-14T04:04:20;12.60;99.90
4687;DHT22;2357;47.316;-1.348;2023-05-14T04:06:46;12.60;99.90
4687;DHT22;2357;47.316;-1.348;2023-05-14T04:09:11;12.60;99.90
4687;DHT22;2357;47.316;-1.348;2023-05-14T04:11:37;12.70;99.90
4687;DHT22;2357;47.316;-1.348;2023-05-14T04:14:03;12.70;99.90
4687;DHT22;2357;47.316;-1.348;2023-05-14T04:16:28;12.70;99.90
4687;DHT22;2357;47.316;-1.348;2023-05-14T04:18:54;12.70;99.90
4687;DHT22;2357;47.316;-1.348;2023-05-14T04:21:20;12.70;99.90
4687;DHT22;2357;47.316;-1.348;2023-05-14T04:23:45;12.60;99.90
4687;DHT22;2357;47.316;-1.348;2023-05-14T04:26:11;12.70;99.90
4687;DHT22;2357;47.316;-1.348;2023-05-14T04:28:37;12.60;99.90
4687;DHT22;2357;47.316;-1.348;2023-05-14T04:31:02;12.60;99.90
4687;DHT22;2357;47.316;-1.348;2023-05-14T04:33:28;12.60;99.90
4687;DHT22;2357;47.316;-1.348;2023-05-14T04:35:53;12.60;99.90
4687;DHT22;2357;47.316;-1.348;2023-05-14T04:38:19;12.60;99.90
4687;DHT22;2357;47.316;-1.348;2023-05-14T04:40:44;12.60;99.90
4687;DHT22;2357;47.316;-1.348;2023-05-14T04:43:10;12.60;99.90
4687;DHT22;2357;47.316;-1.348;2023-05-14T04:45:36;12.60;99.90
4687;DHT22;2357;47.316;-1.348;2023-05-14T04:48:03;12.60;99.90
4687;DHT22;2357;47.316;-1.348;2023-05-14T04:50:29;12.60;99.90
4687;DHT22;2357;47.316;-1.348;2023-05-14T04:52:54;12.60;99.90
4687;DHT22;2357;47.316;-1.348;2023-05-14T04:55:20;12.50;99.90
4687;DHT22;2357;47.316;-1.348;2023-05-14T04:57:46;12.50;99.90
4687;DHT22;2357;47.316;-1.348;2023-05-14T05:00:12;12.50;99.90
4687;DHT22;2357;47.316;-1.348;2023-05-14T05:02:38;12.50;99.90
4687;DHT22;2357;47.316;-1.348;2023-05-14T05:05:04;12.50;99.90
4687;DHT22;2357;47.316;-1.348;2023-05-14T05:07:29;12.50;99.90
4687;DHT22;2357;47.316;-1.348;2023-05-14T05:09:55;12.50;99.90
4687;DHT22;2357;47.316;-1.348;2023-05-14T05:12:21;12.60;99.90
4687;DHT22;2357;47.316;-1.348;2023-05-14T05:14:47;12.60;99.90
4687;DHT22;2357;47.316;-1.348;2023-05-14T05:17:13;12.70;99.90
4687;DHT22;2357;47.316;-1.348;2023-05-14T05:19:38;12.70;99.90
4687;DHT22;2357;47.316;-1.348;2023-05-14T05:22:04;12.70;99.90
4687;DHT22;2357;47.316;-1.348;2023-05-14T05:24:30;12.80;99.90
4687;DHT22;2357;47.316;-1.348;2023-05-14T05:26:55;12.90;99.90
4687;DHT22;2357;47.316;-1.348;2023-05-14T05:29:22;12.90;99.90
4687;DHT22;2357;47.316;-1.348;2023-05-14T05:31:48;12.90;99.90
4687;DHT22;2357;47.316;-1.348;2023-05-14T05:34:14;13.00;99.90
4687;DHT22;2357;47.316;-1.348;2023-05-14T05:36:39;13.00;99.90
4687;DHT22;2357;47.316;-1.348;2023-05-14T05:39:05;13.10;99.90
4687;DHT22;2357;47.316;-1.348;2023-05-14T05:41:31;13.10;99.90
4687;DHT22;2357;47.316;-1.348;2023-05-14T05:43:56;13.10;99.90
4687;DHT22;2357;47.316;-1.348;2023-05-14T05:46:22;13.10;99.90
4687;DHT22;2357;47.316;-1.348;2023-05-14T05:48:47;13.10;99.90
4687;DHT22;2357;47.316;-1.348;2023-05-14T05:51:13;13.20;99.90
4687;DHT22;2357;47.316;-1.348;2023-05-14T05:53:39;13.20;99.90
4687;DHT22;2357;47.316;-1.348;2023-05-14T05:56:05;13.20;99.90
4687;DHT22;2357;47.316;-1.348;2023-05-14T05:58:31;13.30;99.90
4687;DHT22;2357;47.316;-1.348;2023-05-14T06:00:56;13.40;99.90
4687;DHT22;2357;47.316;-1.348;2023-05-14T06:03:22;13.50;99.90
4687;DHT22;2357;47.316;-1.348;2023-05-14T06:05:48;13.50;99.90
4687;DHT22;2357;47.316;-1.348;2023-05-14T06:08:13;13.50;99.90
4687;DHT22;2357;47.316;-1.348;2023-05-14T06:10:39;13.60;99.90
4687;DHT22;2357;47.316;-1.348;2023-05-14T06:13:05;13.60;99.90
4687;DHT22;2357;47.316;-1.348;2023-05-14T06:15:31;13.60;99.90
4687;DHT22;2357;47.316;-1.348;2023-05-14T06:17:57;13.60;99.90
4687;DHT22;2357;47.316;-1.348;2023-05-14T06:20:22;13.70;99.90
4687;DHT22;2357;47.316;-1.348;2023-05-14T06:22:48;13.70;99.90
4687;DHT22;2357;47.316;-1.348;2023-05-14T06:25:13;13.80;99.90
4687;DHT22;2357;47.316;-1.348;2023-05-14T06:27:39;13.80;99.90
4687;DHT22;2357;47.316;-1.348;2023-05-14T06:30:05;13.80;99.90
4687;DHT22;2357;47.316;-1.348;2023-05-14T06:32:31;13.80;99.90
4687;DHT22;2357;47.316;-1.348;2023-05-14T06:34:57;13.80;99.90
4687;DHT22;2357;47.316;-1.348;2023-05-14T06:37:22;13.80;99.90
4687;DHT22;2357;47.316;-1.348;2023-05-14T06:39:48;13.80;99.90
4687;DHT22;2357;47.316;-1.348;2023-05-14T06:42:17;14.00;99.90
4687;DHT22;2357;47.316;-1.348;2023-05-14T06:44:43;14.00;99.90
4687;DHT22;2357;47.316;-1.348;2023-05-14T06:47:09;14.00;99.90
4687;DHT22;2357;47.316;-1.348;2023-05-14T06:49:35;14.00;99.90
4687;DHT22;2357;47.316;-1.348;2023-05-14T06:52:01;14.10;99.90
4687;DHT22;2357;47.316;-1.348;2023-05-14T06:54:27;14.20;99.90
4687;DHT22;2357;47.316;-1.348;2023-05-14T06:56:53;14.30;99.90
4687;DHT22;2357;47.316;-1.348;2023-05-14T06:59:18;14.40;99.90
4687;DHT22;2357;47.316;-1.348;2023-05-14T07:01:44;14.40;99.90
4687;DHT22;2357;47.316;-1.348;2023-05-14T07:04:10;14.40;99.90
4687;DHT22;2357;47.316;-1.348;2023-05-14T07:06:35;14.40;99.90
4687;DHT22;2357;47.316;-1.348;2023-05-14T07:09:01;14.40;99.90
4687;DHT22;2357;47.316;-1.348;2023-05-14T07:11:27;14.20;99.90
4687;DHT22;2357;47.316;-1.348;2023-05-14T07:13:53;14.20;99.90
4687;DHT22;2357;47.316;-1.348;2023-05-14T07:16:18;14.20;99.90
4687;DHT22;2357;47.316;-1.348;2023-05-14T07:18:44;14.20;99.90
4687;DHT22;2357;47.316;-1.348;2023-05-14T07:21:10;14.20;99.90
4687;DHT22;2357;47.316;-1.348;2023-05-14T07:23:36;14.20;99.90
4687;DHT22;2357;47.316;-1.348;2023-05-14T07:26:03;14.20;99.90
4687;DHT22;2357;47.316;-1.348;2023-05-14T07:28:29;14.20;99.90
4687;DHT22;2357;47.316;-1.348;2023-05-14T07:30:55;14.30;99.90
4687;DHT22;2357;47.316;-1.348;2023-05-14T07:33:21;14.20;99.90
4687;DHT22;2357;47.316;-1.348;2023-05-14T07:35:47;14.10;99.90
4687;DHT22;2357;47.316;-1.348;2023-05-14T07:38:13;14.20;99.90
4687;DHT22;2357;47.316;-1.348;2023-05-14T07:40:38;14.20;99.90
4687;DHT22;2357;47.316;-1.348;2023-05-14T07:43:04;14.20;99.90
4687;DHT22;2357;47.316;-1.348;2023-05-14T07:45:29;14.20;99.90
4687;DHT22;2357;47.316;-1.348;2023-05-14T07:47:55;14.20;99.90
4687;DHT22;2357;47.316;-1.348;2023-05-14T07:50:22;14.20;99.90
4687;DHT22;2357;47.316;-1.348;2023-05-14T07:52:47;14.30;99.90
4687;DHT22;2357;47.316;-1.348;2023-05-14T07:55:13;14.30;99.90
4687;DHT22;2357;47.316;-1.348;2023-05-14T07:57:39;14.30;99.90
4687;DHT22;2357;47.316;-1.348;2023-05-14T08:00:05;14.30;99.90
4687;DHT22;2357;47.316;-1.348;2023-05-14T08:02:34;14.40;99.90
4687;DHT22;2357;47.316;-1.348;2023-05-14T08:05:00;14.60;99.90
4687;DHT22;2357;47.316;-1.348;2023-05-14T08:07:25;14.70;99.90
4687;DHT22;2357;47.316;-1.348;2023-05-14T08:09:53;14.80;99.90
4687;DHT22;2357;47.316;-1.348;2023-05-14T08:12:19;15.00;99.90
4687;DHT22;2357;47.316;-1.348;2023-05-14T08:14:45;15.20;99.90
4687;DHT22;2357;47.316;-1.348;2023-05-14T08:17:11;15.30;99.90
4687;DHT22;2357;47.316;-1.348;2023-05-14T08:19:36;15.30;99.90
4687;DHT22;2357;47.316;-1.348;2023-05-14T08:22:02;15.40;99.90
4687;DHT22;2357;47.316;-1.348;2023-05-14T08:24:28;15.50;99.90
4687;DHT22;2357;47.316;-1.348;2023-05-14T08:26:54;15.60;99.90
4687;DHT22;2357;47.316;-1.348;2023-05-14T08:29:20;15.70;99.90
4687;DHT22;2357;47.316;-1.348;2023-05-14T08:31:46;15.80;99.90
4687;DHT22;2357;47.316;-1.348;2023-05-14T08:34:11;15.90;99.90
4687;DHT22;2357;47.316;-1.348;2023-05-14T08:36:40;15.90;99.90
4687;DHT22;2357;47.316;-1.348;2023-05-14T08:39:06;16.00;99.90
4687;DHT22;2357;47.316;-1.348;2023-05-14T08:41:35;15.90;99.90
4687;DHT22;2357;47.316;-1.348;2023-05-14T08:44:06;16.00;99.90
4687;DHT22;2357;47.316;-1.348;2023-05-14T08:46:36;16.10;99.90
4687;DHT22;2357;47.316;-1.348;2023-05-14T08:51:39;16.30;99.90
4687;DHT22;2357;47.316;-1.348;2023-05-14T08:54:05;16.30;99.90
4687;DHT22;2357;47.316;-1.348;2023-05-14T08:56:34;16.40;99.90
4687;DHT22;2357;47.316;-1.348;2023-05-14T08:59:00;16.60;99.90
4687;DHT22;2357;47.316;-1.348;2023-05-14T09:01:27;16.70;99.90
4687;DHT22;2357;47.316;-1.348;2023-05-14T09:03:54;16.80;99.90
4687;DHT22;2357;47.316;-1.348;2023-05-14T09:06:20;16.80;99.90
4687;DHT22;2357;47.316;-1.348;2023-05-14T09:08:46;16.70;99.90
4687;DHT22;2357;47.316;-1.348;2023-05-14T09:11:12;16.80;99.90
4687;DHT22;2357;47.316;-1.348;2023-05-14T09:13:38;16.90;99.90
4687;DHT22;2357;47.316;-1.348;2023-05-14T09:16:04;16.90;99.90
4687;DHT22;2357;47.316;-1.348;2023-05-14T09:18:30;17.00;99.90
4687;DHT22;2357;47.316;-1.348;2023-05-14T09:20:56;16.90;99.90
4687;DHT22;2357;47.316;-1.348;2023-05-14T09:23:25;17.10;99.90
4687;DHT22;2357;47.316;-1.348;2023-05-14T09:25:51;17.20;99.90
4687;DHT22;2357;47.316;-1.348;2023-05-14T09:28:17;17.20;99.90
4687;DHT22;2357;47.316;-1.348;2023-05-14T09:30:51;17.40;99.90
4687;DHT22;2357;47.316;-1.348;2023-05-14T09:33:27;17.40;99.90
4687;DHT22;2357;47.316;-1.348;2023-05-14T09:36:02;17.60;99.90
4687;DHT22;2357;47.316;-1.348;2023-05-14T09:38:31;17.70;99.90
4687;DHT22;2357;47.316;-1.348;2023-05-14T09:40:57;17.80;99.90
4687;DHT22;2357;47.316;-1.348;2023-05-14T09:43:23;18.00;99.90
4687;DHT22;2357;47.316;-1.348;2023-05-14T09:45:49;17.80;99.90
4687;DHT22;2357;47.316;-1.348;2023-05-14T09:48:15;17.80;99.90
4687;DHT22;2357;47.316;-1.348;2023-05-14T09:50:45;18.00;99.90
4687;DHT22;2357;47.316;-1.348;2023-05-14T09:53:11;17.90;99.90
4687;DHT22;2357;47.316;-1.348;2023-05-14T09:55:38;18.10;99.90
4687;DHT22;2357;47.316;-1.348;2023-05-14T09:58:04;18.00;99.90
4687;DHT22;2357;47.316;-1.348;2023-05-14T10:00:33;18.20;99.90
4687;DHT22;2357;47.316;-1.348;2023-05-14T10:03:04;18.30;99.90
4687;DHT22;2357;47.316;-1.348;2023-05-14T10:05:35;18.30;99.90
4687;DHT22;2357;47.316;-1.348;2023-05-14T10:08:09;18.50;99.90
4687;DHT22;2357;47.316;-1.348;2023-05-14T10:10:37;18.60;99.90
4687;DHT22;2357;47.316;-1.348;2023-05-14T10:13:05;18.40;99.90
4687;DHT22;2357;47.316;-1.348;2023-05-14T10:16:07;18.50;99.90
4687;DHT22;2357;47.316;-1.348;2023-05-14T10:18:39;18.70;99.90
4687;DHT22;2357;47.316;-1.348;2023-05-14T10:21:06;18.80;99.90
4687;DHT22;2357;47.316;-1.348;2023-05-14T10:23:33;19.00;99.90
4687;DHT22;2357;47.316;-1.348;2023-05-14T10:26:02;19.00;99.90
4687;DHT22;2357;47.316;-1.348;2023-05-14T10:28:29;19.00;99.90
4687;DHT22;2357;47.316;-1.348;2023-05-14T10:30:55;18.90;99.90
4687;DHT22;2357;47.316;-1.348;2023-05-14T10:33:21;19.00;99.90
4687;DHT22;2357;47.316;-1.348;2023-05-14T10:36:00;19.10;99.90
4687;DHT22;2357;47.316;-1.348;2023-05-14T10:38:29;19.10;99.90
4687;DHT22;2357;47.316;-1.348;2023-05-14T10:43:27;19.20;99.90
4687;DHT22;2357;47.316;-1.348;2023-05-14T10:45:55;19.30;99.90
4687;DHT22;2357;47.316;-1.348;2023-05-14T10:48:21;19.20;99.90
4687;DHT22;2357;47.316;-1.348;2023-05-14T10:50:49;19.50;99.90
4687;DHT22;2357;47.316;-1.348;2023-05-14T10:53:15;19.50;99.90
4687;DHT22;2357;47.316;-1.348;2023-05-14T10:55:41;19.60;99.90
4687;DHT22;2357;47.316;-1.348;2023-05-14T10:58:09;19.60;99.90
4687;DHT22;2357;47.316;-1.348;2023-05-14T11:00:35;19.60;99.90
4687;DHT22;2357;47.316;-1.348;2023-05-14T11:03:03;19.80;99.90
4687;DHT22;2357;47.316;-1.348;2023-05-14T11:05:30;20.00;99.90
4687;DHT22;2357;47.316;-1.348;2023-05-14T11:07:57;20.10;99.90
4687;DHT22;2357;47.316;-1.348;2023-05-14T11:10:23;20.20;99.90
4687;DHT22;2357;47.316;-1.348;2023-05-14T11:12:50;20.00;99.90
4687;DHT22;2357;47.316;-1.348;2023-05-14T11:15:19;20.30;99.90
4687;DHT22;2357;47.316;-1.348;2023-05-14T11:17:47;20.40;99.90
4687;DHT22;2357;47.316;-1.348;2023-05-14T11:20:13;20.20;99.90
4687;DHT22;2357;47.316;-1.348;2023-05-14T11:22:40;20.50;99.90
4687;DHT22;2357;47.316;-1.348;2023-05-14T11:25:07;20.50;99.90
4687;DHT22;2357;47.316;-1.348;2023-05-14T11:27:35;20.60;99.90
4687;DHT22;2357;47.316;-1.348;2023-05-14T11:30:01;20.70;99.90
4687;DHT22;2357;47.316;-1.348;2023-05-14T11:32:28;20.80;99.90
4687;DHT22;2357;47.316;-1.348;2023-05-14T11:34:56;20.70;99.90
4687;DHT22;2357;47.316;-1.348;2023-05-14T11:37:21;20.80;99.90
4687;DHT22;2357;47.316;-1.348;2023-05-14T11:39:47;21.00;99.90
4687;DHT22;2357;47.316;-1.348;2023-05-14T11:42:13;21.00;99.90
4687;DHT22;2357;47.316;-1.348;2023-05-14T11:44:41;20.90;99.90
4687;DHT22;2357;47.316;-1.348;2023-05-14T11:47:09;21.00;99.90
4687;DHT22;2357;47.316;-1.348;2023-05-14T11:49:35;21.10;99.90
4687;DHT22;2357;47.316;-1.348;2023-05-14T11:52:04;21.40;99.90
4687;DHT22;2357;47.316;-1.348;2023-05-14T11:54:32;21.30;99.90
4687;DHT22;2357;47.316;-1.348;2023-05-14T11:56:58;21.30;99.90
4687;DHT22;2357;47.316;-1.348;2023-05-14T11:59:26;21.40;99.90
4687;DHT22;2357;47.316;-1.348;2023-05-14T12:01:53;21.70;99.90
4687;DHT22;2357;47.316;-1.348;2023-05-14T12:04:19;21.90;99.90
4687;DHT22;2357;47.316;-1.348;2023-05-14T12:06:51;21.80;99.90
4687;DHT22;2357;47.316;-1.348;2023-05-14T12:09:20;21.80;99.90
4687;DHT22;2357;47.316;-1.348;2023-05-14T12:11:48;22.00;99.90
4687;DHT22;2357;47.316;-1.348;2023-05-14T12:14:19;22.10;99.90
4687;DHT22;2357;47.316;-1.348;2023-05-14T12:16:46;22.30;99.90
4687;DHT22;2357;47.316;-1.348;2023-05-14T12:19:16;22.40;99.90
4687;DHT22;2357;47.316;-1.348;2023-05-14T12:21:43;22.50;99.90
4687;DHT22;2357;47.316;-1.348;2023-05-14T12:24:11;22.70;99.90
4687;DHT22;2357;47.316;-1.348;2023-05-14T12:26:37;22.70;99.90
4687;DHT22;2357;47.316;-1.348;2023-05-14T12:29:04;22.60;99.90
4687;DHT22;2357;47.316;-1.348;2023-05-14T12:31:34;22.90;99.90
4687;DHT22;2357;47.316;-1.348;2023-05-14T12:34:01;22.90;99.90
4687;DHT22;2357;47.316;-1.348;2023-05-14T12:36:28;22.90;99.90
4687;DHT22;2357;47.316;-1.348;2023-05-14T12:38:59;23.00;99.90
4687;DHT22;2357;47.316;-1.348;2023-05-14T12:41:31;23.10;99.90
4687;DHT22;2357;47.316;-1.348;2023-05-14T12:43:57;23.40;99.90
4687;DHT22;2357;47.316;-1.348;2023-05-14T12:46:25;23.50;99.90
4687;DHT22;2357;47.316;-1.348;2023-05-14T12:48:51;23.50;99.90
4687;DHT22;2357;47.316;-1.348;2023-05-14T12:51:16;23.50;99.90
4687;DHT22;2357;47.316;-1.348;2023-05-14T12:53:42;23.40;99.90
4687;DHT22;2357;47.316;-1.348;2023-05-14T12:56:08;23.50;99.90
4687;DHT22;2357;47.316;-1.348;2023-05-14T12:58:34;23.60;99.90
4687;DHT22;2357;47.316;-1.348;2023-05-14T13:00:59;23.80;99.90
4687;DHT22;2357;47.316;-1.348;2023-05-14T13:03:25;24.00;99.90
4687;DHT22;2357;47.316;-1.348;2023-05-14T13:05:51;24.40;99.90
4687;DHT22;2357;47.316;-1.348;2023-05-14T13:08:17;24.20;99.90
4687;DHT22;2357;47.316;-1.348;2023-05-14T13:10:46;23.80;99.90
4687;DHT22;2357;47.316;-1.348;2023-05-14T13:13:13;23.60;99.90
4687;DHT22;2357;47.316;-1.348;2023-05-14T13:15:39;24.00;99.90
4687;DHT22;2357;47.316;-1.348;2023-05-14T13:18:05;24.30;99.90
4687;DHT22;2357;47.316;-1.348;2023-05-14T13:20:31;24.20;99.90
4687;DHT22;2357;47.316;-1.348;2023-05-14T13:22:57;24.50;99.90
4687;DHT22;2357;47.316;-1.348;2023-05-14T13:25:22;24.70;99.90
4687;DHT22;2357;47.316;-1.348;2023-05-14T13:27:48;24.70;99.90
4687;DHT22;2357;47.316;-1.348;2023-05-14T13:30:19;24.60;99.90
4687;DHT22;2357;47.316;-1.348;2023-05-14T13:32:44;24.20;99.90
4687;DHT22;2357;47.316;-1.348;2023-05-14T13:35:10;23.60;99.90
4687;DHT22;2357;47.316;-1.348;2023-05-14T13:37:36;22.70;99.90
4687;DHT22;2357;47.316;-1.348;2023-05-14T13:40:03;22.50;99.90
4687;DHT22;2357;47.316;-1.348;2023-05-14T13:42:29;22.80;99.90
4687;DHT22;2357;47.316;-1.348;2023-05-14T13:44:57;23.60;99.90
4687;DHT22;2357;47.316;-1.348;2023-05-14T13:47:24;23.90;99.90
4687;DHT22;2357;47.316;-1.348;2023-05-14T13:49:50;24.10;99.90
4687;DHT22;2357;47.316;-1.348;2023-05-14T13:52:16;24.50;99.90
4687;DHT22;2357;47.316;-1.348;2023-05-14T13:54:42;24.40;99.90
4687;DHT22;2357;47.316;-1.348;2023-05-14T13:57:07;23.80;99.90
4687;DHT22;2357;47.316;-1.348;2023-05-14T13:59:34;23.80;99.90
4687;DHT22;2357;47.316;-1.348;2023-05-14T14:01:59;24.00;99.90
4687;DHT22;2357;47.316;-1.348;2023-05-14T14:04:25;23.80;99.90
4687;DHT22;2357;47.316;-1.348;2023-05-14T14:06:53;23.20;99.90
4687;DHT22;2357;47.316;-1.348;2023-05-14T14:09:19;23.50;99.90
4687;DHT22;2357;47.316;-1.348;2023-05-14T14:11:45;24.30;99.90
4687;DHT22;2357;47.316;-1.348;2023-05-14T14:14:11;24.80;99.90
4687;DHT22;2357;47.316;-1.348;2023-05-14T14:16:37;25.20;99.90
4687;DHT22;2357;47.316;-1.348;2023-05-14T14:19:03;25.40;99.90
4687;DHT22;2357;47.316;-1.348;2023-05-14T14:21:29;25.60;99.90
4687;DHT22;2357;47.316;-1.348;2023-05-14T14:23:56;25.00;99.90
4687;DHT22;2357;47.316;-1.348;2023-05-14T14:26:21;24.30;99.90
4687;DHT22;2357;47.316;-1.348;2023-05-14T14:28:47;24.30;99.90
4687;DHT22;2357;47.316;-1.348;2023-05-14T14:31:13;24.80;99.90
4687;DHT22;2357;47.316;-1.348;2023-05-14T14:33:38;25.20;99.90
4687;DHT22;2357;47.316;-1.348;2023-05-14T14:36:05;25.50;99.90
4687;DHT22;2357;47.316;-1.348;2023-05-14T14:38:30;25.20;99.90
4687;DHT22;2357;47.316;-1.348;2023-05-14T14:40:56;25.50;99.90
4687;DHT22;2357;47.316;-1.348;2023-05-14T14:43:23;25.80;99.90
4687;DHT22;2357;47.316;-1.348;2023-05-14T14:45:49;25.00;99.90
4687;DHT22;2357;47.316;-1.348;2023-05-14T14:48:27;24.60;99.90
4687;DHT22;2357;47.316;-1.348;2023-05-14T14:50:55;24.90;99.90
4687;DHT22;2357;47.316;-1.348;2023-05-14T14:53:21;24.50;99.90
4687;DHT22;2357;47.316;-1.348;2023-05-14T14:55:48;24.10;99.90
4687;DHT22;2357;47.316;-1.348;2023-05-14T14:58:14;24.50;99.90
4687;DHT22;2357;47.316;-1.348;2023-05-14T15:00:39;24.90;99.90
4687;DHT22;2357;47.316;-1.348;2023-05-14T15:03:06;25.30;99.90
4687;DHT22;2357;47.316;-1.348;2023-05-14T15:05:33;25.60;99.90
4687;DHT22;2357;47.316;-1.348;2023-05-14T15:07:59;25.90;99.90
4687;DHT22;2357;47.316;-1.348;2023-05-14T15:10:29;26.00;99.90
4687;DHT22;2357;47.316;-1.348;2023-05-14T15:12:58;26.00;99.90
4687;DHT22;2357;47.316;-1.348;2023-05-14T15:15:25;26.00;99.90
4687;DHT22;2357;47.316;-1.348;2023-05-14T15:17:50;26.00;99.90
4687;DHT22;2357;47.316;-1.348;2023-05-14T15:20:16;26.00;99.90
4687;DHT22;2357;47.316;-1.348;2023-05-14T15:22:42;26.20;99.90
4687;DHT22;2357;47.316;-1.348;2023-05-14T15:25:08;25.80;99.90
4687;DHT22;2357;47.316;-1.348;2023-05-14T15:27:34;25.70;99.90
4687;DHT22;2357;47.316;-1.348;2023-05-14T15:30:01;25.70;99.90
4687;DHT22;2357;47.316;-1.348;2023-05-14T15:32:27;25.70;99.90
4687;DHT22;2357;47.316;-1.348;2023-05-14T15:34:54;26.00;99.90
4687;DHT22;2357;47.316;-1.348;2023-05-14T15:37:19;25.50;99.90
4687;DHT22;2357;47.316;-1.348;2023-05-14T15:39:45;25.80;99.90
4687;DHT22;2357;47.316;-1.348;2023-05-14T15:42:11;25.90;99.90
4687;DHT22;2357;47.316;-1.348;2023-05-14T15:44:37;26.00;99.90
4687;DHT22;2357;47.316;-1.348;2023-05-14T15:47:02;26.00;99.90
4687;DHT22;2357;47.316;-1.348;2023-05-14T15:49:28;26.00;99.90
4687;DHT22;2357;47.316;-1.348;2023-05-14T15:51:54;26.10;99.90